Terminal Aerodrome Forecast
Issued by NWS Sterling, VA

Current Version | Previous Version | Text Only | Print | Product List | Glossary Off
Versions: 1 2 3 4 5 6 7 8 9 10 11 12 13 14 15 16 17 18 19 20 21 22

000
FTUS41 KLWX 271737
TAFDCA
TAF
KDCA 271737Z 2718/2818 19007KT P6SM FEW045
     FM272300 18008KT P6SM VCTS SCT045CB
     FM280200 18006KT P6SM FEW040=

USA.gov is the U.S. government's official web portal to all federal, state and local government web resources and services.